sensor_id;sensor_type;location;lat;lon;timestamp;temperature;humidity
8910;DHT22;4490;49.072;8.804;2023-07-13T00:02:21;20.80;80.60
8910;DHT22;4490;49.072;8.804;2023-07-13T00:04:47;20.80;80.90
8910;DHT22;4490;49.072;8.804;2023-07-13T00:07:13;20.70;81.10
8910;DHT22;4490;49.072;8.804;2023-07-13T00:09:39;20.60;81.30
8910;DHT22;4490;49.072;8.804;2023-07-13T00:12:26;20.50;81.70
8910;DHT22;4490;49.072;8.804;2023-07-13T00:14:53;20.50;81.90
8910;DHT22;4490;49.072;8.804;2023-07-13T00:17:18;20.40;82.10
8910;DHT22;4490;49.072;8.804;2023-07-13T00:19:44;20.30;82.10
8910;DHT22;4490;49.072;8.804;2023-07-13T00:22:11;20.20;82.50
8910;DHT22;4490;49.072;8.804;2023-07-13T00:24:36;20.10;83.60
8910;DHT22;4490;49.072;8.804;2023-07-13T00:27:08;20.00;82.90
8910;DHT22;4490;49.072;8.804;2023-07-13T00:29:34;19.90;83.10
8910;DHT22;4490;49.072;8.804;2023-07-13T00:31:59;19.90;83.50
8910;DHT22;4490;49.072;8.804;2023-07-13T00:34:25;19.80;83.80
8910;DHT22;4490;49.072;8.804;2023-07-13T00:36:51;19.70;84.00
8910;DHT22;4490;49.072;8.804;2023-07-13T00:39:17;19.70;84.30
8910;DHT22;4490;49.072;8.804;2023-07-13T00:41:42;19.60;84.40
8910;DHT22;4490;49.072;8.804;2023-07-13T00:44:14;19.60;84.70
8910;DHT22;4490;49.072;8.804;2023-07-13T00:46:41;19.50;85.00
8910;DHT22;4490;49.072;8.804;2023-07-13T00:49:10;19.40;85.30
8910;DHT22;4490;49.072;8.804;2023-07-13T00:51:45;19.40;86.00
8910;DHT22;4490;49.072;8.804;2023-07-13T00:54:19;19.30;86.60
8910;DHT22;4490;49.072;8.804;2023-07-13T00:56:48;19.20;87.30
8910;DHT22;4490;49.072;8.804;2023-07-13T00:59:17;19.20;87.90
8910;DHT22;4490;49.072;8.804;2023-07-13T01:01:44;19.20;88.60
8910;DHT22;4490;49.072;8.804;2023-07-13T01:04:10;19.10;89.00
8910;DHT22;4490;49.072;8.804;2023-07-13T01:06:37;19.10;89.60
8910;DHT22;4490;49.072;8.804;2023-07-13T01:09:04;19.00;89.60
8910;DHT22;4490;49.072;8.804;2023-07-13T01:11:31;19.00;90.20
8910;DHT22;4490;49.072;8.804;2023-07-13T01:13:57;19.00;90.10
8910;DHT22;4490;49.072;8.804;2023-07-13T01:16:27;18.90;90.40
8910;DHT22;4490;49.072;8.804;2023-07-13T01:18:55;18.90;90.70
8910;DHT22;4490;49.072;8.804;2023-07-13T01:21:24;18.80;90.80
8910;DHT22;4490;49.072;8.804;2023-07-13T01:23:50;18.70;91.00
8910;DHT22;4490;49.072;8.804;2023-07-13T01:26:15;18.70;91.30
8910;DHT22;4490;49.072;8.804;2023-07-13T01:28:41;18.70;91.60
8910;DHT22;4490;49.072;8.804;2023-07-13T01:31:07;18.60;91.80
8910;DHT22;4490;49.072;8.804;2023-07-13T01:33:33;18.50;91.90
8910;DHT22;4490;49.072;8.804;2023-07-13T01:36:00;18.50;92.40
8910;DHT22;4490;49.072;8.804;2023-07-13T01:38:27;18.40;92.90
8910;DHT22;4490;49.072;8.804;2023-07-13T01:40:53;18.30;93.40
8910;DHT22;4490;49.072;8.804;2023-07-13T01:43:19;18.30;93.90
8910;DHT22;4490;49.072;8.804;2023-07-13T01:45:45;18.30;94.90
8910;DHT22;4490;49.072;8.804;2023-07-13T01:48:11;18.20;95.10
8910;DHT22;4490;49.072;8.804;2023-07-13T01:50:37;18.20;95.90
8910;DHT22;4490;49.072;8.804;2023-07-13T01:53:03;18.20;96.60
8910;DHT22;4490;49.072;8.804;2023-07-13T01:55:30;18.10;96.90
8910;DHT22;4490;49.072;8.804;2023-07-13T01:57:56;18.10;96.30
8910;DHT22;4490;49.072;8.804;2023-07-13T02:00:22;18.00;96.50
8910;DHT22;4490;49.072;8.804;2023-07-13T02:02:47;17.90;97.40
8910;DHT22;4490;49.072;8.804;2023-07-13T02:05:14;17.90;98.00
8910;DHT22;4490;49.072;8.804;2023-07-13T02:07:40;17.80;98.30
8910;DHT22;4490;49.072;8.804;2023-07-13T02:10:07;17.80;98.60
8910;DHT22;4490;49.072;8.804;2023-07-13T02:12:33;17.80;98.90
8910;DHT22;4490;49.072;8.804;2023-07-13T02:14:59;17.70;98.80
8910;DHT22;4490;49.072;8.804;2023-07-13T02:17:26;17.70;99.60
8910;DHT22;4490;49.072;8.804;2023-07-13T02:19:52;17.60;99.90
8910;DHT22;4490;49.072;8.804;2023-07-13T02:22:18;17.60;99.90
8910;DHT22;4490;49.072;8.804;2023-07-13T02:24:43;17.50;99.90
8910;DHT22;4490;49.072;8.804;2023-07-13T02:27:09;17.50;99.90
8910;DHT22;4490;49.072;8.804;2023-07-13T02:29:35;17.40;99.90
8910;DHT22;4490;49.072;8.804;2023-07-13T02:32:00;17.50;99.90
8910;DHT22;4490;49.072;8.804;2023-07-13T02:34:26;17.40;99.90
8910;DHT22;4490;49.072;8.804;2023-07-13T02:36:52;17.30;99.90
8910;DHT22;4490;49.072;8.804;2023-07-13T02:39:18;17.30;99.90
8910;DHT22;4490;49.072;8.804;2023-07-13T02:41:44;17.20;99.90
8910;DHT22;4490;49.072;8.804;2023-07-13T02:44:09;17.20;99.90
8910;DHT22;4490;49.072;8.804;2023-07-13T02:46:37;17.20;99.90
8910;DHT22;4490;49.072;8.804;2023-07-13T02:49:03;17.10;99.90
8910;DHT22;4490;49.072;8.804;2023-07-13T02:51:29;17.10;99.90
8910;DHT22;4490;49.072;8.804;2023-07-13T02:53:55;17.10;99.90
8910;DHT22;4490;49.072;8.804;2023-07-13T02:56:26;17.10;99.90
8910;DHT22;4490;49.072;8.804;2023-07-13T02:58:52;17.10;99.90
8910;DHT22;4490;49.072;8.804;2023-07-13T03:01:18;17.10;99.90
8910;DHT22;4490;49.072;8.804;2023-07-13T03:03:45;17.00;99.90
8910;DHT22;4490;49.072;8.804;2023-07-13T03:06:12;16.90;99.90
8910;DHT22;4490;49.072;8.804;2023-07-13T03:08:38;16.90;99.90
8910;DHT22;4490;49.072;8.804;2023-07-13T03:11:08;16.80;99.90
8910;DHT22;4490;49.072;8.804;2023-07-13T03:13:34;16.80;99.90
8910;DHT22;4490;49.072;8.804;2023-07-13T03:16:00;16.70;99.90
8910;DHT22;4490;49.072;8.804;2023-07-13T03:18:29;16.70;99.90
8910;DHT22;4490;49.072;8.804;2023-07-13T03:20:54;16.70;99.90
8910;DHT22;4490;49.072;8.804;2023-07-13T03:23:21;16.60;99.90
8910;DHT22;4490;49.072;8.804;2023-07-13T03:25:48;16.60;99.90
8910;DHT22;4490;49.072;8.804;2023-07-13T03:28:14;16.50;99.90
8910;DHT22;4490;49.072;8.804;2023-07-13T03:30:40;16.50;99.90
8910;DHT22;4490;49.072;8.804;2023-07-13T03:33:05;16.50;99.90
8910;DHT22;4490;49.072;8.804;2023-07-13T03:35:31;16.50;99.90
8910;DHT22;4490;49.072;8.804;2023-07-13T03:37:58;16.40;99.90
8910;DHT22;4490;49.072;8.804;2023-07-13T03:40:25;16.40;99.90
8910;DHT22;4490;49.072;8.804;2023-07-13T03:42:52;16.40;99.90
8910;DHT22;4490;49.072;8.804;2023-07-13T03:45:17;16.40;99.90
8910;DHT22;4490;49.072;8.804;2023-07-13T03:47:43;16.40;99.90
8910;DHT22;4490;49.072;8.804;2023-07-13T03:50:09;16.40;99.90
8910;DHT22;4490;49.072;8.804;2023-07-13T03:52:35;16.30;99.90
8910;DHT22;4490;49.072;8.804;2023-07-13T03:55:00;16.40;99.90
8910;DHT22;4490;49.072;8.804;2023-07-13T03:57:26;16.40;99.90
8910;DHT22;4490;49.072;8.804;2023-07-13T03:59:51;16.40;99.90
8910;DHT22;4490;49.072;8.804;2023-07-13T04:02:17;16.40;99.90
8910;DHT22;4490;49.072;8.804;2023-07-13T04:04:43;16.40;99.90
8910;DHT22;4490;49.072;8.804;2023-07-13T04:07:09;16.40;99.90
8910;DHT22;4490;49.072;8.804;2023-07-13T04:09:35;16.40;99.90
8910;DHT22;4490;49.072;8.804;2023-07-13T04:12:01;16.40;99.90
8910;DHT22;4490;49.072;8.804;2023-07-13T04:14:26;16.40;99.90
8910;DHT22;4490;49.072;8.804;2023-07-13T04:16:52;16.40;99.90
8910;DHT22;4490;49.072;8.804;2023-07-13T04:19:20;16.40;99.90
8910;DHT22;4490;49.072;8.804;2023-07-13T04:21:45;16.50;99.90
8910;DHT22;4490;49.072;8.804;2023-07-13T04:24:11;16.50;99.90
8910;DHT22;4490;49.072;8.804;2023-07-13T04:26:37;16.50;99.90
8910;DHT22;4490;49.072;8.804;2023-07-13T04:29:04;16.50;99.90
8910;DHT22;4490;49.072;8.804;2023-07-13T04:31:30;16.60;99.90
8910;DHT22;4490;49.072;8.804;2023-07-13T04:33:56;16.60;99.90
8910;DHT22;4490;49.072;8.804;2023-07-13T04:36:22;16.60;99.90
8910;DHT22;4490;49.072;8.804;2023-07-13T04:38:48;16.70;99.90
8910;DHT22;4490;49.072;8.804;2023-07-13T04:41:15;16.70;99.90
8910;DHT22;4490;49.072;8.804;2023-07-13T04:43:41;16.70;99.90
8910;DHT22;4490;49.072;8.804;2023-07-13T04:46:09;16.80;99.90
8910;DHT22;4490;49.072;8.804;2023-07-13T04:48:36;16.80;99.90
8910;DHT22;4490;49.072;8.804;2023-07-13T04:51:02;16.80;99.90
8910;DHT22;4490;49.072;8.804;2023-07-13T04:53:29;16.80;99.90
8910;DHT22;4490;49.072;8.804;2023-07-13T04:55:55;16.80;99.90
8910;DHT22;4490;49.072;8.804;2023-07-13T04:58:22;16.90;99.90
8910;DHT22;4490;49.072;8.804;2023-07-13T05:00:48;16.90;99.90
8910;DHT22;4490;49.072;8.804;2023-07-13T05:03:13;17.00;99.90
8910;DHT22;4490;49.072;8.804;2023-07-13T05:05:39;17.00;99.90
8910;DHT22;4490;49.072;8.804;2023-07-13T05:08:05;17.00;99.90
8910;DHT22;4490;49.072;8.804;2023-07-13T05:10:30;17.10;99.90
8910;DHT22;4490;49.072;8.804;2023-07-13T05:12:56;17.10;99.90
8910;DHT22;4490;49.072;8.804;2023-07-13T05:15:22;17.20;99.90
8910;DHT22;4490;49.072;8.804;2023-07-13T05:17:49;17.30;99.90
8910;DHT22;4490;49.072;8.804;2023-07-13T05:20:16;17.40;99.90
8910;DHT22;4490;49.072;8.804;2023-07-13T05:22:42;17.40;99.90
8910;DHT22;4490;49.072;8.804;2023-07-13T05:25:08;17.50;99.90
8910;DHT22;4490;49.072;8.804;2023-07-13T05:27:34;17.60;99.90
8910;DHT22;4490;49.072;8.804;2023-07-13T05:30:02;17.70;99.90
8910;DHT22;4490;49.072;8.804;2023-07-13T05:32:27;17.70;99.90
8910;DHT22;4490;49.072;8.804;2023-07-13T05:34:53;17.80;99.90
8910;DHT22;4490;49.072;8.804;2023-07-13T05:37:19;17.90;99.90
8910;DHT22;4490;49.072;8.804;2023-07-13T05:39:44;18.00;99.90
8910;DHT22;4490;49.072;8.804;2023-07-13T05:42:10;18.10;99.90
8910;DHT22;4490;49.072;8.804;2023-07-13T05:44:36;18.10;99.90
8910;DHT22;4490;49.072;8.804;2023-07-13T05:47:01;18.20;99.90
8910;DHT22;4490;49.072;8.804;2023-07-13T05:49:27;18.20;99.90
8910;DHT22;4490;49.072;8.804;2023-07-13T05:51:53;18.30;99.90
8910;DHT22;4490;49.072;8.804;2023-07-13T05:54:18;18.40;99.90
8910;DHT22;4490;49.072;8.804;2023-07-13T05:56:44;18.40;99.90
8910;DHT22;4490;49.072;8.804;2023-07-13T05:59:10;18.50;99.90
8910;DHT22;4490;49.072;8.804;2023-07-13T06:01:35;18.60;99.90
8910;DHT22;4490;49.072;8.804;2023-07-13T06:04:01;18.70;99.90
8910;DHT22;4490;49.072;8.804;2023-07-13T06:06:27;18.80;99.90
8910;DHT22;4490;49.072;8.804;2023-07-13T06:08:53;18.90;99.90
8910;DHT22;4490;49.072;8.804;2023-07-13T06:11:23;19.00;99.90
8910;DHT22;4490;49.072;8.804;2023-07-13T06:13:49;19.10;99.50
8910;DHT22;4490;49.072;8.804;2023-07-13T06:16:15;19.20;97.90
8910;DHT22;4490;49.072;8.804;2023-07-13T06:18:42;19.30;97.30
8910;DHT22;4490;49.072;8.804;2023-07-13T06:21:17;19.40;96.50
8910;DHT22;4490;49.072;8.804;2023-07-13T06:23:43;19.50;95.50
8910;DHT22;4490;49.072;8.804;2023-07-13T06:26:09;19.60;95.00
8910;DHT22;4490;49.072;8.804;2023-07-13T06:28:36;19.70;93.90
8910;DHT22;4490;49.072;8.804;2023-07-13T06:31:01;19.90;93.80
8910;DHT22;4490;49.072;8.804;2023-07-13T06:33:27;20.00;93.40
8910;DHT22;4490;49.072;8.804;2023-07-13T06:35:53;20.10;93.40
8910;DHT22;4490;49.072;8.804;2023-07-13T06:38:20;20.20;92.20
8910;DHT22;4490;49.072;8.804;2023-07-13T06:40:46;20.30;90.60
8910;DHT22;4490;49.072;8.804;2023-07-13T06:43:11;20.30;87.60
8910;DHT22;4490;49.072;8.804;2023-07-13T06:45:43;20.40;88.00
8910;DHT22;4490;49.072;8.804;2023-07-13T06:48:11;20.50;86.90
8910;DHT22;4490;49.072;8.804;2023-07-13T06:50:37;20.60;86.80
8910;DHT22;4490;49.072;8.804;2023-07-13T06:53:02;20.80;87.00
8910;DHT22;4490;49.072;8.804;2023-07-13T06:55:28;21.00;84.50
8910;DHT22;4490;49.072;8.804;2023-07-13T06:57:53;21.20;84.10
8910;DHT22;4490;49.072;8.804;2023-07-13T07:00:19;21.30;82.20
8910;DHT22;4490;49.072;8.804;2023-07-13T07:02:45;21.40;81.90
8910;DHT22;4490;49.072;8.804;2023-07-13T07:05:10;21.60;81.40
8910;DHT22;4490;49.072;8.804;2023-07-13T07:07:36;21.70;80.90
8910;DHT22;4490;49.072;8.804;2023-07-13T07:10:02;21.90;79.60
8910;DHT22;4490;49.072;8.804;2023-07-13T07:12:29;22.00;78.80
8910;DHT22;4490;49.072;8.804;2023-07-13T07:14:54;22.00;78.40
8910;DHT22;4490;49.072;8.804;2023-07-13T07:17:20;22.10;78.30
8910;DHT22;4490;49.072;8.804;2023-07-13T07:19:46;22.30;76.80
8910;DHT22;4490;49.072;8.804;2023-07-13T07:22:11;22.40;77.30
8910;DHT22;4490;49.072;8.804;2023-07-13T07:24:37;22.50;75.50
8910;DHT22;4490;49.072;8.804;2023-07-13T07:27:02;22.60;74.90
8910;DHT22;4490;49.072;8.804;2023-07-13T07:29:28;22.70;75.40
8910;DHT22;4490;49.072;8.804;2023-07-13T07:31:54;22.80;75.20
8910;DHT22;4490;49.072;8.804;2023-07-13T07:34:19;22.90;75.00
8910;DHT22;4490;49.072;8.804;2023-07-13T07:36:45;23.10;74.60
8910;DHT22;4490;49.072;8.804;2023-07-13T07:39:11;23.20;74.10
8910;DHT22;4490;49.072;8.804;2023-07-13T07:41:37;23.30;72.70
8910;DHT22;4490;49.072;8.804;2023-07-13T07:44:03;23.40;72.80
8910;DHT22;4490;49.072;8.804;2023-07-13T07:46:29;23.50;72.40
8910;DHT22;4490;49.072;8.804;2023-07-13T07:48:56;23.60;71.80
8910;DHT22;4490;49.072;8.804;2023-07-13T07:51:21;23.60;70.30
8910;DHT22;4490;49.072;8.804;2023-07-13T07:53:47;23.70;70.40
8910;DHT22;4490;49.072;8.804;2023-07-13T07:56:13;23.70;70.70
8910;DHT22;4490;49.072;8.804;2023-07-13T07:58:41;23.80;70.90
8910;DHT22;4490;49.072;8.804;2023-07-13T08:01:07;23.90;71.50
8910;DHT22;4490;49.072;8.804;2023-07-13T08:03:33;24.00;70.70
8910;DHT22;4490;49.072;8.804;2023-07-13T08:05:59;24.10;70.40
8910;DHT22;4490;49.072;8.804;2023-07-13T08:08:25;24.20;69.70
8910;DHT22;4490;49.072;8.804;2023-07-13T08:10:51;24.20;69.10
8910;DHT22;4490;49.072;8.804;2023-07-13T08:13:16;24.30;69.40
8910;DHT22;4490;49.072;8.804;2023-07-13T08:15:42;24.40;69.30
8910;DHT22;4490;49.072;8.804;2023-07-13T08:18:07;24.50;69.20
8910;DHT22;4490;49.072;8.804;2023-07-13T08:20:39;24.60;68.80
8910;DHT22;4490;49.072;8.804;2023-07-13T08:23:06;24.80;67.90
8910;DHT22;4490;49.072;8.804;2023-07-13T08:25:32;24.90;68.80
8910;DHT22;4490;49.072;8.804;2023-07-13T08:27:57;25.10;68.20
8910;DHT22;4490;49.072;8.804;2023-07-13T08:30:23;25.10;66.10
8910;DHT22;4490;49.072;8.804;2023-07-13T08:32:48;25.20;65.60
8910;DHT22;4490;49.072;8.804;2023-07-13T08:35:14;25.20;65.10
8910;DHT22;4490;49.072;8.804;2023-07-13T08:37:41;25.20;64.50
8910;DHT22;4490;49.072;8.804;2023-07-13T08:40:09;25.30;65.20
8910;DHT22;4490;49.072;8.804;2023-07-13T08:42:54;25.40;64.20
8910;DHT22;4490;49.072;8.804;2023-07-13T08:45:41;25.50;63.30
8910;DHT22;4490;49.072;8.804;2023-07-13T08:48:21;25.50;63.00
8910;DHT22;4490;49.072;8.804;2023-07-13T08:51:12;25.70;62.80
8910;DHT22;4490;49.072;8.804;2023-07-13T08:53:47;25.80;61.70
8910;DHT22;4490;49.072;8.804;2023-07-13T08:56:20;25.90;61.70
8910;DHT22;4490;49.072;8.804;2023-07-13T08:58:51;25.90;63.10
8910;DHT22;4490;49.072;8.804;2023-07-13T09:04:14;26.00;61.50
8910;DHT22;4490;49.072;8.804;2023-07-13T09:07:18;26.10;62.00
8910;DHT22;4490;49.072;8.804;2023-07-13T09:15:52;26.40;60.30
8910;DHT22;4490;49.072;8.804;2023-07-13T09:18:35;26.40;59.70
8910;DHT22;4490;49.072;8.804;2023-07-13T09:21:21;26.60;61.20
8910;DHT22;4490;49.072;8.804;2023-07-13T09:23:47;26.80;58.80
8910;DHT22;4490;49.072;8.804;2023-07-13T09:26:20;26.90;60.10
8910;DHT22;4490;49.072;8.804;2023-07-13T09:28:49;27.00;59.50
8910;DHT22;4490;49.072;8.804;2023-07-13T09:31:34;27.10;59.40
8910;DHT22;4490;49.072;8.804;2023-07-13T09:34:02;27.20;59.40
8910;DHT22;4490;49.072;8.804;2023-07-13T09:36:32;27.30;59.20
8910;DHT22;4490;49.072;8.804;2023-07-13T09:44:33;27.60;58.00
8910;DHT22;4490;49.072;8.804;2023-07-13T09:46:59;27.70;56.90
8910;DHT22;4490;49.072;8.804;2023-07-13T09:49:28;27.70;57.70
8910;DHT22;4490;49.072;8.804;2023-07-13T09:52:07;27.80;56.80
8910;DHT22;4490;49.072;8.804;2023-07-13T09:54:36;27.90;56.00
8910;DHT22;4490;49.072;8.804;2023-07-13T09:57:04;28.00;56.20
8910;DHT22;4490;49.072;8.804;2023-07-13T09:59:34;28.10;56.10
8910;DHT22;4490;49.072;8.804;2023-07-13T10:02:00;28.20;55.10
8910;DHT22;4490;49.072;8.804;2023-07-13T10:04:31;28.30;55.30
8910;DHT22;4490;49.072;8.804;2023-07-13T10:07:08;28.40;54.80
8910;DHT22;4490;49.072;8.804;2023-07-13T10:09:34;28.50;54.60
8910;DHT22;4490;49.072;8.804;2023-07-13T10:12:00;28.50;54.70
8910;DHT22;4490;49.072;8.804;2023-07-13T10:14:28;28.60;54.50
8910;DHT22;4490;49.072;8.804;2023-07-13T10:16:59;28.60;54.60
8910;DHT22;4490;49.072;8.804;2023-07-13T10:19:31;28.70;54.40
8910;DHT22;4490;49.072;8.804;2023-07-13T10:22:10;28.60;53.80
8910;DHT22;4490;49.072;8.804;2023-07-13T10:24:39;28.70;54.00
8910;DHT22;4490;49.072;8.804;2023-07-13T10:29:42;28.80;52.70
8910;DHT22;4490;49.072;8.804;2023-07-13T10:32:10;28.80;53.00
8910;DHT22;4490;49.072;8.804;2023-07-13T10:34:36;28.90;52.70
8910;DHT22;4490;49.072;8.804;2023-07-13T10:37:03;29.00;52.40
8910;DHT22;4490;49.072;8.804;2023-07-13T10:39:30;29.10;51.80
8910;DHT22;4490;49.072;8.804;2023-07-13T10:42:02;29.20;51.30
8910;DHT22;4490;49.072;8.804;2023-07-13T10:44:31;29.30;52.60
8910;DHT22;4490;49.072;8.804;2023-07-13T10:47:07;29.40;51.40
8910;DHT22;4490;49.072;8.804;2023-07-13T10:49:34;29.50;51.00
8910;DHT22;4490;49.072;8.804;2023-07-13T10:52:02;29.50;50.20
8910;DHT22;4490;49.072;8.804;2023-07-13T10:54:33;29.50;50.20
8910;DHT22;4490;49.072;8.804;2023-07-13T10:57:20;29.60;49.30
8910;DHT22;4490;49.072;8.804;2023-07-13T10:59:49;29.70;48.70
8910;DHT22;4490;49.072;8.804;2023-07-13T11:02:28;29.70;48.80
8910;DHT22;4490;49.072;8.804;2023-07-13T11:04:55;29.80;48.30
8910;DHT22;4490;49.072;8.804;2023-07-13T11:07:26;29.80;48.90
8910;DHT22;4490;49.072;8.804;2023-07-13T11:10:05;29.90;49.50
8910;DHT22;4490;49.072;8.804;2023-07-13T11:12:52;30.00;49.30
8910;DHT22;4490;49.072;8.804;2023-07-13T11:15:43;30.10;47.50
8910;DHT22;4490;49.072;8.804;2023-07-13T11:18:23;30.20;48.60
8910;DHT22;4490;49.072;8.804;2023-07-13T11:20:50;30.30;48.40
8910;DHT22;4490;49.072;8.804;2023-07-13T11:25:43;30.60;48.20
8910;DHT22;4490;49.072;8.804;2023-07-13T11:38:38;31.20;47.70
8910;DHT22;4490;49.072;8.804;2023-07-13T11:41:21;31.20;46.50
8910;DHT22;4490;49.072;8.804;2023-07-13T11:43:53;31.30;46.50
8910;DHT22;4490;49.072;8.804;2023-07-13T11:46:25;31.30;45.80
8910;DHT22;4490;49.072;8.804;2023-07-13T11:48:52;31.30;46.40
8910;DHT22;4490;49.072;8.804;2023-07-13T11:51:25;31.20;47.40
8910;DHT22;4490;49.072;8.804;2023-07-13T11:53:54;31.20;46.70
8910;DHT22;4490;49.072;8.804;2023-07-13T11:56:22;31.10;46.20
8910;DHT22;4490;49.072;8.804;2023-07-13T11:58:51;31.00;46.60
8910;DHT22;4490;49.072;8.804;2023-07-13T12:01:30;30.90;47.70
8910;DHT22;4490;49.072;8.804;2023-07-13T12:04:00;31.00;47.20
8910;DHT22;4490;49.072;8.804;2023-07-13T12:06:33;30.90;47.00
8910;DHT22;4490;49.072;8.804;2023-07-13T12:09:03;30.90;46.70
8910;DHT22;4490;49.072;8.804;2023-07-13T12:11:35;30.90;47.00
8910;DHT22;4490;49.072;8.804;2023-07-13T12:14:03;30.90;46.70
8910;DHT22;4490;49.072;8.804;2023-07-13T12:16:32;30.90;46.90
8910;DHT22;4490;49.072;8.804;2023-07-13T12:18:59;30.80;47.10
8910;DHT22;4490;49.072;8.804;2023-07-13T12:21:37;30.80;47.20
8910;DHT22;4490;49.072;8.804;2023-07-13T12:24:04;30.80;46.80
8910;DHT22;4490;49.072;8.804;2023-07-13T12:26:31;30.70;47.60
8910;DHT22;4490;49.072;8.804;2023-07-13T12:29:00;30.60;47.20
8910;DHT22;4490;49.072;8.804;2023-07-13T12:34:02;30.50;48.60
8910;DHT22;4490;49.072;8.804;2023-07-13T12:36:31;30.60;49.30
8910;DHT22;4490;49.072;8.804;2023-07-13T12:39:00;30.90;49.30
8910;DHT22;4490;49.072;8.804;2023-07-13T12:41:30;31.10;48.80
8910;DHT22;4490;49.072;8.804;2023-07-13T12:43:55;31.20;48.30
8910;DHT22;4490;49.072;8.804;2023-07-13T12:46:24;31.20;48.40
8910;DHT22;4490;49.072;8.804;2023-07-13T12:48:54;31.30;47.30
8910;DHT22;4490;49.072;8.804;2023-07-13T12:51:25;31.30;47.30
8910;DHT22;4490;49.072;8.804;2023-07-13T12:53:59;31.30;46.70
8910;DHT22;4490;49.072;8.804;2023-07-13T12:56:33;31.40;47.00
8910;DHT22;4490;49.072;8.804;2023-07-13T12:59:03;31.50;47.30
8910;DHT22;4490;49.072;8.804;2023-07-13T13:01:33;31.60;46.60
8910;DHT22;4490;49.072;8.804;2023-07-13T13:04:02;31.80;46.30
8910;DHT22;4490;49.072;8.804;2023-07-13T13:06:32;31.90;46.10
8910;DHT22;4490;49.072;8.804;2023-07-13T13:08:59;32.00;45.80
8910;DHT22;4490;49.072;8.804;2023-07-13T13:11:26;32.10;45.80
8910;DHT22;4490;49.072;8.804;2023-07-13T13:13:52;32.10;46.20
8910;DHT22;4490;49.072;8.804;2023-07-13T13:16:44;32.20;46.50
8910;DHT22;4490;49.072;8.804;2023-07-13T13:19:20;32.20;45.80
8910;DHT22;4490;49.072;8.804;2023-07-13T13:21:48;32.00;45.40
8910;DHT22;4490;49.072;8.804;2023-07-13T13:24:18;31.70;45.50
8910;DHT22;4490;49.072;8.804;2023-07-13T13:26:46;31.50;45.70
8910;DHT22;4490;49.072;8.804;2023-07-13T13:29:22;31.30;45.30
8910;DHT22;4490;49.072;8.804;2023-07-13T13:31:52;31.20;44.90
8910;DHT22;4490;49.072;8.804;2023-07-13T13:34:19;31.10;45.40
8910;DHT22;4490;49.072;8.804;2023-07-13T13:36:46;30.90;45.50
8910;DHT22;4490;49.072;8.804;2023-07-13T13:39:22;30.70;46.10
8910;DHT22;4490;49.072;8.804;2023-07-13T13:41:49;30.60;46.70
8910;DHT22;4490;49.072;8.804;2023-07-13T13:44:17;30.30;46.60
8910;DHT22;4490;49.072;8.804;2023-07-13T13:46:45;30.20;46.70
8910;DHT22;4490;49.072;8.804;2023-07-13T13:49:19;29.80;47.50
8910;DHT22;4490;49.072;8.804;2023-07-13T13:51:46;29.70;46.90
8910;DHT22;4490;49.072;8.804;2023-07-13T13:54:13;29.60;47.40
8910;DHT22;4490;49.072;8.804;2023-07-13T13:56:42;29.80;48.10
8910;DHT22;4490;49.072;8.804;2023-07-13T13:59:08;30.00;47.50
8910;DHT22;4490;49.072;8.804;2023-07-13T14:01:34;30.00;46.90
8910;DHT22;4490;49.072;8.804;2023-07-13T14:04:00;30.10;46.60
8910;DHT22;4490;49.072;8.804;2023-07-13T14:06:26;30.00;46.00
8910;DHT22;4490;49.072;8.804;2023-07-13T14:08:52;29.80;46.20
8910;DHT22;4490;49.072;8.804;2023-07-13T14:11:21;29.80;45.80
8910;DHT22;4490;49.072;8.804;2023-07-13T14:13:56;29.70;45.30
8910;DHT22;4490;49.072;8.804;2023-07-13T14:16:29;29.70;45.60
8910;DHT22;4490;49.072;8.804;2023-07-13T14:18:58;29.50;45.90
8910;DHT22;4490;49.072;8.804;2023-07-13T14:21:26;29.50;46.20
8910;DHT22;4490;49.072;8.804;2023-07-13T14:23:52;29.50;45.60
8910;DHT22;4490;49.072;8.804;2023-07-13T14:26:20;29.60;46.30
8910;DHT22;4490;49.072;8.804;2023-07-13T14:28:49;29.70;46.00
8910;DHT22;4490;49.072;8.804;2023-07-13T14:31:16;29.90;46.50
8910;DHT22;4490;49.072;8.804;2023-07-13T14:33:43;30.00;46.90
8910;DHT22;4490;49.072;8.804;2023-07-13T14:38:55;30.10;45.80
8910;DHT22;4490;49.072;8.804;2023-07-13T14:41:21;30.20;46.30
8910;DHT22;4490;49.072;8.804;2023-07-13T14:43:47;30.30;46.10
8910;DHT22;4490;49.072;8.804;2023-07-13T14:46:31;30.40;46.40
8910;DHT22;4490;49.072;8.804;2023-07-13T14:49:02;30.50;44.10
8910;DHT22;4490;49.072;8.804;2023-07-13T14:51:30;30.40;44.60
8910;DHT22;4490;49.072;8.804;2023-07-13T14:53:55;30.30;44.90
8910;DHT22;4490;49.072;8.804;2023-07-13T14:56:21;30.20;44.70
8910;DHT22;4490;49.072;8.804;2023-07-13T14:58:47;30.10;44.20
8910;DHT22;4490;49.072;8.804;2023-07-13T15:01:14;30.00;44.50
8910;DHT22;4490;49.072;8.804;2023-07-13T15:03:46;29.90;44.90
8910;DHT22;4490;49.072;8.804;2023-07-13T15:06:13;29.80;45.00
8910;DHT22;4490;49.072;8.804;2023-07-13T15:08:39;29.70;45.60
8910;DHT22;4490;49.072;8.804;2023-07-13T15:11:08;29.70;46.10
8910;DHT22;4490;49.072;8.804;2023-07-13T15:13:38;29.60;46.30
8910;DHT22;4490;49.072;8.804;2023-07-13T15:16:04;29.60;46.40
8910;DHT22;4490;49.072;8.804;2023-07-13T15:18:30;29.60;46.80
8910;DHT22;4490;49.072;8.804;2023-07-13T15:20:56;29.60;46.80
8910;DHT22;4490;49.072;8.804;2023-07-13T15:23:25;29.60;46.40
8910;DHT22;4490;49.072;8.804;2023-07-13T15:25:51;29.50;46.20
8910;DHT22;4490;49.072;8.804;2023-07-13T15:28:17;29.50;46.60
8910;DHT22;4490;49.072;8.804;2023-07-13T15:30:45;29.50;46.30
8910;DHT22;4490;49.072;8.804;2023-07-13T15:35:42;29.40;46.40
8910;DHT22;4490;49.072;8.804;2023-07-13T15:38:21;29.20;46.70
8910;DHT22;4490;49.072;8.804;2023-07-13T15:40:48;29.20;47.20
8910;DHT22;4490;49.072;8.804;2023-07-13T15:43:15;29.10;47.30
8910;DHT22;4490;49.072;8.804;2023-07-13T15:45:41;29.10;46.60
8910;DHT22;4490;49.072;8.804;2023-07-13T15:48:22;29.00;46.20
8910;DHT22;4490;49.072;8.804;2023-07-13T15:50:51;29.00;46.20
8910;DHT22;4490;49.072;8.804;2023-07-13T15:53:23;28.90;46.80
8910;DHT22;4490;49.072;8.804;2023-07-13T15:55:50;28.80;46.80
8910;DHT22;4490;49.072;8.804;2023-07-13T15:58:17;28.80;46.80
8910;DHT22;4490;49.072;8.804;2023-07-13T16:00:44;28.80;47.10
8910;DHT22;4490;49.072;8.804;2023-07-13T16:03:10;28.80;47.20
8910;DHT22;4490;49.072;8.804;2023-07-13T16:05:37;28.70;47.30
8910;DHT22;4490;49.072;8.804;2023-07-13T16:08:04;28.70;47.60
8910;DHT22;4490;49.072;8.804;2023-07-13T16:10:33;28.60;47.80
8910;DHT22;4490;49.072;8.804;2023-07-13T16:13:01;28.60;48.20
8910;DHT22;4490;49.072;8.804;2023-07-13T16:15:27;28.60;47.90
8910;DHT22;4490;49.072;8.804;2023-07-13T16:17:53;28.50;48.00
8910;DHT22;4490;49.072;8.804;2023-07-13T16:20:20;28.40;48.90
8910;DHT22;4490;49.072;8.804;2023-07-13T16:22:48;28.40;48.10
8910;DHT22;4490;49.072;8.804;2023-07-13T16:27:47;28.30;47.80
8910;DHT22;4490;49.072;8.804;2023-07-13T16:30:21;28.30;48.10
8910;DHT22;4490;49.072;8.804;2023-07-13T16:32:51;28.30;48.20
8910;DHT22;4490;49.072;8.804;2023-07-13T16:35:20;28.20;48.30
8910;DHT22;4490;49.072;8.804;2023-07-13T16:37:46;28.10;48.70
8910;DHT22;4490;49.072;8.804;2023-07-13T16:40:24;28.00;48.70
8910;DHT22;4490;49.072;8.804;2023-07-13T16:42:51;27.90;48.70
8910;DHT22;4490;49.072;8.804;2023-07-13T16:45:21;27.90;48.70
8910;DHT22;4490;49.072;8.804;2023-07-13T16:47:50;27.90;49.10
8910;DHT22;4490;49.072;8.804;2023-07-13T16:50:21;27.90;49.20